Time;durP1;ratioP1;P1;durP2;ratioP2;P2;SDS_P1;SDS_P2;PMS_P1;PMS_P2;Temp;Humidity;BMP_temperature;BMP_pressure;BME280_temperature;BME280_humidity;BME280_pressure;Samples;Min_cycle;Max_cycle;Signal;HPM_P1;HPM_P2
2024/04/04 00:01:09;;;;;;;27.27;5.18;;;14.20;91.10;;;;;;5047950;28;20523;-58
2024/04/04 00:03:38;;;;;;;28.02;5.28;;;14.20;91.00;;;;;;5046521;28;20037;-58
2024/04/04 00:06:04;;;;;;;20.38;4.22;;;14.20;91.10;;;;;;5046569;28;20035;-58
2024/04/04 00:08:31;;;;;;;16.02;3.83;;;14.20;91.10;;;;;;5046293;28;20048;-58
2024/04/04 00:10:58;;;;;;;14.70;3.78;;;14.20;91.20;;;;;;5047705;28;20052;-58
2024/04/04 00:13:24;;;;;;;17.15;3.80;;;14.20;91.30;;;;;;5047630;28;20056;-58
2024/04/04 00:15:50;;;;;;;19.77;3.20;;;14.10;91.40;;;;;;5047642;28;20025;-58
2024/04/04 00:18:15;;;;;;;23.92;4.13;;;14.10;91.40;;;;;;5029456;28;20464;-58
2024/04/04 00:20:41;;;;;;;19.35;3.35;;;14.10;91.40;;;;;;5046208;28;20037;-58
2024/04/04 00:23:07;;;;;;;15.05;3.10;;;14.10;91.40;;;;;;5046119;28;20030;-58
2024/04/04 00:25:32;;;;;;;17.15;3.67;;;14.10;91.50;;;;;;5047381;28;20044;-58
2024/04/04 00:27:58;;;;;;;18.00;3.45;;;14.10;91.50;;;;;;5045907;28;20037;-58
2024/04/04 00:30:24;;;;;;;19.77;3.17;;;14.10;91.50;;;;;;5046018;28;20021;-58
2024/04/04 00:32:49;;;;;;;20.83;3.78;;;14.00;91.60;;;;;;5045907;28;20025;-58
2024/04/04 00:35:16;;;;;;;16.23;3.55;;;14.00;91.50;;;;;;5045808;28;20099;-58
2024/04/04 00:37:44;;;;;;;26.00;3.60;;;14.00;91.50;;;;;;5047322;28;20104;-58
2024/04/04 00:40:10;;;;;;;17.80;3.40;;;14.00;91.50;;;;;;5045607;28;20033;-58
2024/04/04 00:42:36;;;;;;;20.25;3.72;;;14.00;91.60;;;;;;5028790;28;20025;-60
2024/04/04 00:45:02;;;;;;;13.63;3.50;;;14.00;91.50;;;;;;5045673;28;20084;-58
2024/04/04 00:47:27;;;;;;;12.88;3.00;;;14.00;91.50;;;;;;5045663;28;20033;-58
2024/04/04 00:49:53;;;;;;;12.75;2.80;;;14.00;91.50;;;;;;5045677;28;20072;-58
2024/04/04 00:52:19;;;;;;;13.35;3.05;;;14.00;91.50;;;;;;5045475;28;20041;-58
2024/04/04 00:54:45;;;;;;;16.45;3.10;;;14.00;91.60;;;;;;5045478;28;20105;-58
2024/04/04 00:57:10;;;;;;;15.77;2.63;;;14.00;91.60;;;;;;5045474;28;20040;-58
2024/04/04 00:59:36;;;;;;;13.85;2.47;;;14.00;91.50;;;;;;5045384;28;20030;-58
2024/04/04 01:02:02;;;;;;;12.70;3.20;;;14.00;91.50;;;;;;5045415;28;20480;-58
2024/04/04 01:04:27;;;;;;;11.38;2.70;;;14.00;91.50;;;;;;5045317;28;20044;-58
2024/04/04 01:06:53;;;;;;;13.55;2.72;;;14.00;91.50;;;;;;5046721;28;20025;-58
2024/04/04 01:09:19;;;;;;;16.75;3.28;;;14.00;91.50;;;;;;5028628;28;20034;-58
2024/04/04 01:11:44;;;;;;;9.85;2.28;;;14.00;91.50;;;;;;5028703;28;20021;-58
2024/04/04 01:14:10;;;;;;;16.48;2.63;;;14.00;91.50;;;;;;5046669;28;20033;-58
2024/04/04 01:16:36;;;;;;;8.73;2.00;;;14.00;91.50;;;;;;5045383;28;20125;-58
2024/04/04 01:19:01;;;;;;;12.07;2.85;;;13.90;91.50;;;;;;5046562;28;20029;-58
2024/04/04 01:21:27;;;;;;;16.48;2.50;;;13.90;91.50;;;;;;5045043;28;20112;-57
2024/04/04 01:23:53;;;;;;;12.68;2.38;;;13.90;91.50;;;;;;5028518;28;20060;-58
2024/04/04 01:26:18;;;;;;;11.13;2.30;;;13.90;91.50;;;;;;5045074;28;20037;-58
2024/04/04 01:28:46;;;;;;;14.10;2.20;;;13.90;91.60;;;;;;5048755;28;20033;-58
2024/04/04 01:31:12;;;;;;;9.82;2.50;;;13.90;91.60;;;;;;5028794;28;20025;-58
2024/04/04 01:33:38;;;;;;;12.57;2.47;;;13.90;91.50;;;;;;5045024;28;20033;-58
2024/04/04 01:36:03;;;;;;;10.75;2.17;;;13.90;91.60;;;;;;5030548;28;20037;-58
2024/04/04 01:38:29;;;;;;;10.98;2.00;;;13.90;91.60;;;;;;5044755;28;20029;-58
2024/04/04 01:40:55;;;;;;;12.32;2.53;;;13.80;91.60;;;;;;5046061;28;20038;-58
2024/04/04 01:43:20;;;;;;;8.18;1.98;;;13.80;91.60;;;;;;5046282;28;20037;-58
2024/04/04 01:45:46;;;;;;;10.52;2.13;;;13.90;91.70;;;;;;5027792;28;20025;-58
2024/04/04 01:48:12;;;;;;;11.85;2.13;;;13.90;91.70;;;;;;5043791;28;20064;-58
2024/04/04 01:50:38;;;;;;;7.93;1.80;;;13.80;91.70;;;;;;5044580;28;20049;-58
2024/04/04 01:53:04;;;;;;;7.05;1.50;;;13.80;91.70;;;;;;5043887;28;20101;-58
2024/04/04 01:55:30;;;;;;;9.20;2.05;;;13.80;91.70;;;;;;5045812;28;20029;-58
2024/04/04 01:57:58;;;;;;;7.03;1.83;;;13.80;91.60;;;;;;5041818;28;20093;-58
2024/04/04 02:00:26;;;;;;;6.97;1.70;;;13.80;91.60;;;;;;5043997;28;20113;-58
2024/04/04 02:02:52;;;;;;;7.30;2.10;;;13.80;91.60;;;;;;5044353;28;20380;-58
2024/04/04 02:05:18;;;;;;;8.60;2.05;;;13.80;91.60;;;;;;5044185;28;20037;-58
2024/04/04 02:07:44;;;;;;;11.15;1.90;;;13.80;91.60;;;;;;5045043;28;20029;-58
2024/04/04 02:10:10;;;;;;;8.52;1.90;;;13.80;91.60;;;;;;5045495;28;20342;-58
2024/04/04 02:12:35;;;;;;;7.97;2.25;;;13.80;91.60;;;;;;5044107;28;20045;-58
2024/04/04 02:15:02;;;;;;;9.23;2.00;;;13.80;91.60;;;;;;5045184;28;20095;-58
2024/04/04 02:17:27;;;;;;;8.82;2.08;;;13.80;91.60;;;;;;5043997;28;20033;-58
2024/04/04 02:19:54;;;;;;;8.75;2.08;;;13.80;91.60;;;;;;5045154;28;20077;-58
2024/04/04 02:22:20;;;;;;;8.60;1.70;;;13.80;91.60;;;;;;5043925;28;20112;-58
2024/04/04 02:24:46;;;;;;;8.27;1.42;;;13.80;91.60;;;;;;5045430;28;20041;-58
2024/04/04 02:27:11;;;;;;;6.95;1.73;;;13.80;91.60;;;;;;5043752;28;20033;-58
2024/04/04 02:29:37;;;;;;;6.88;2.00;;;13.70;91.60;;;;;;5043935;28;20060;-58
2024/04/04 02:32:03;;;;;;;6.45;1.42;;;13.70;91.60;;;;;;5045145;28;20029;-58
2024/04/04 02:34:28;;;;;;;10.52;1.90;;;13.70;91.60;;;;;;5045049;28;20048;-58
2024/04/04 02:36:54;;;;;;;3.92;1.42;;;13.80;91.70;;;;;;5044963;28;20049;-58
2024/04/04 02:39:19;;;;;;;6.10;1.42;;;13.80;91.60;;;;;;5044963;28;20461;-58
2024/04/04 02:41:45;;;;;;;10.48;2.10;;;13.70;91.60;;;;;;5043862;28;20215;-58
2024/04/04 02:44:11;;;;;;;8.77;2.22;;;13.80;91.60;;;;;;5045049;28;20089;-58
2024/04/04 02:46:37;;;;;;;11.32;2.60;;;13.70;91.60;;;;;;5044792;28;20171;-58
2024/04/04 02:49:03;;;;;;;5.30;1.50;;;13.70;91.60;;;;;;5043535;28;20082;-58
2024/04/04 02:51:29;;;;;;;5.30;1.63;;;13.70;91.60;;;;;;5043432;28;20453;-57
2024/04/04 02:53:54;;;;;;;6.30;1.48;;;13.70;91.70;;;;;;5043547;28;20039;-58
2024/04/04 02:56:20;;;;;;;7.75;1.80;;;13.70;91.70;;;;;;5043097;28;20026;-58
2024/04/04 02:58:45;;;;;;;7.28;1.40;;;13.70;91.70;;;;;;5044594;28;20037;-58
2024/04/04 03:01:11;;;;;;;8.10;1.73;;;13.70;91.70;;;;;;5043175;28;20025;-58
2024/04/04 03:03:37;;;;;;;5.63;1.33;;;13.70;91.80;;;;;;5043398;28;20425;-58
2024/04/04 03:06:03;;;;;;;5.00;1.25;;;13.60;91.80;;;;;;5042974;28;20444;-58
2024/04/04 03:08:28;;;;;;;6.43;1.52;;;13.60;91.80;;;;;;5044546;28;20037;-58
2024/04/04 03:10:54;;;;;;;7.10;1.70;;;13.60;91.80;;;;;;5042946;28;20021;-58
2024/04/04 03:13:20;;;;;;;6.13;1.33;;;13.60;91.80;;;;;;5042992;28;20114;-58
2024/04/04 03:15:58;;;;;;;3.70;1.38;;;13.60;91.80;;;;;;5042941;28;20025;-58
2024/04/04 03:18:23;;;;;;;6.63;1.30;;;13.60;91.90;;;;;;5043011;28;20552;-58
2024/04/04 03:20:49;;;;;;;5.65;1.25;;;13.60;91.90;;;;;;5042856;28;20033;-58
2024/04/04 03:23:15;;;;;;;8.35;2.08;;;13.60;91.90;;;;;;5042844;28;20040;-58
2024/04/04 03:25:40;;;;;;;4.53;1.10;;;13.60;92.00;;;;;;5042906;28;20045;-57
2024/04/04 03:28:06;;;;;;;3.45;1.10;;;13.60;92.00;;;;;;5042706;28;20084;-58
2024/04/04 03:30:32;;;;;;;4.03;0.95;;;13.60;92.00;;;;;;5042992;28;20041;-58
2024/04/04 03:32:57;;;;;;;7.30;1.27;;;13.60;92.00;;;;;;5042879;28;20057;-58
2024/04/04 03:35:25;;;;;;;2.33;1.10;;;13.60;92.00;;;;;;5044195;28;20032;-58
2024/04/04 03:37:50;;;;;;;4.85;1.15;;;13.60;91.90;;;;;;5042843;28;20051;-58
2024/04/04 03:40:16;;;;;;;2.70;1.00;;;13.60;91.90;;;;;;5042720;28;20037;-58
2024/04/04 03:42:42;;;;;;;7.82;1.73;;;13.60;91.90;;;;;;5042851;28;20033;-58
2024/04/04 03:45:08;;;;;;;8.30;1.38;;;13.60;91.90;;;;;;5044286;28;20124;-58
2024/04/04 03:47:36;;;;;;;4.40;1.05;;;13.60;91.90;;;;;;5042752;28;20105;-58
2024/04/04 03:50:02;;;;;;;3.05;1.20;;;13.60;91.90;;;;;;5042662;28;20468;-58
2024/04/04 03:52:28;;;;;;;2.55;1.20;;;13.60;91.90;;;;;;5045600;28;20037;-58
2024/04/04 03:54:54;;;;;;;4.72;1.27;;;13.60;91.90;;;;;;5026306;28;20087;-58
2024/04/04 03:57:20;;;;;;;4.28;1.10;;;13.60;91.90;;;;;;5042626;28;20037;-58
2024/04/04 03:59:45;;;;;;;3.72;0.88;;;13.60;92.00;;;;;;5042753;28;20120;-58
2024/04/04 04:02:11;;;;;;;4.35;1.23;;;13.60;92.00;;;;;;5042840;28;20059;-58
2024/04/04 04:04:37;;;;;;;6.82;1.30;;;13.60;92.00;;;;;;5043805;28;20045;-58
2024/04/04 04:07:02;;;;;;;6.32;1.33;;;13.50;91.90;;;;;;5044033;28;20030;-58
2024/04/04 04:09:28;;;;;;;5.45;1.38;;;13.50;91.90;;;;;;5042573;28;20029;-58
2024/04/04 04:11:53;;;;;;;21.10;2.40;;;13.50;91.80;;;;;;5026029;28;20108;-58
2024/04/04 04:14:19;;;;;;;19.60;2.88;;;13.50;91.80;;;;;;5042467;28;20037;-57
2024/04/04 04:16:45;;;;;;;9.20;2.10;;;13.60;91.90;;;;;;5044038;28;20089;-58
2024/04/04 04:19:13;;;;;;;9.43;1.83;;;13.50;91.80;;;;;;5046341;28;20052;-58
2024/04/04 04:21:38;;;;;;;12.98;1.80;;;13.50;91.80;;;;;;5047402;28;20056;-58
2024/04/04 04:24:04;;;;;;;13.68;2.40;;;13.50;91.80;;;;;;5046603;28;20034;-58
2024/04/04 04:26:33;;;;;;;12.23;1.60;;;13.50;91.80;;;;;;5047752;28;20057;-59
2024/04/04 04:28:59;;;;;;;10.50;1.42;;;13.50;91.90;;;;;;5047469;28;20041;-58
2024/04/04 04:31:33;;;;;;;8.77;1.45;;;13.50;91.90;;;;;;5046047;28;20109;-58
2024/04/04 04:34:03;;;;;;;7.88;1.85;;;13.50;91.90;;;;;;5046061;28;20034;-58
2024/04/04 04:36:31;;;;;;;11.23;1.55;;;13.50;91.90;;;;;;5045886;28;20032;-58
2024/04/04 04:38:57;;;;;;;14.93;1.85;;;13.50;91.90;;;;;;5047392;28;20128;-58
2024/04/04 04:41:22;;;;;;;11.50;1.95;;;13.50;91.90;;;;;;5046920;28;20029;-58
2024/04/04 04:43:48;;;;;;;14.75;2.20;;;13.50;92.20;;;;;;5045831;28;20029;-58
2024/04/04 04:46:15;;;;;;;18.65;2.67;;;13.50;91.90;;;;;;5046985;28;20426;-59
2024/04/04 04:48:41;;;;;;;17.73;2.90;;;13.50;92.00;;;;;;5045499;28;20112;-58
2024/04/04 04:51:07;;;;;;;19.20;3.63;;;13.50;91.90;;;;;;5047066;28;20049;-58
2024/04/04 04:53:33;;;;;;;30.88;3.42;;;13.50;91.90;;;;;;5029021;28;20087;-58
2024/04/04 04:55:58;;;;;;;34.03;4.43;;;13.50;91.90;;;;;;5045504;28;20052;-58
2024/04/04 04:58:24;;;;;;;38.08;5.22;;;13.50;91.90;;;;;;5046792;28;20034;-57
2024/04/04 05:00:51;;;;;;;35.50;4.38;;;13.50;91.90;;;;;;5046601;28;20041;-57
2024/04/04 05:03:23;;;;;;;54.63;4.63;;;13.50;92.10;;;;;;5045221;28;20032;-57
2024/04/04 05:05:50;;;;;;;78.13;8.88;;;13.50;92.10;;;;;;5045004;28;20025;-58
2024/04/04 05:08:17;;;;;;;59.17;8.05;;;13.50;92.40;;;;;;5046389;28;20095;-57
2024/04/04 05:10:43;;;;;;;38.20;5.75;;;13.50;92.40;;;;;;5045164;28;20044;-58
2024/04/04 05:13:09;;;;;;;69.03;7.45;;;13.40;92.40;;;;;;5028500;28;20393;-58
2024/04/04 05:15:43;;;;;;;42.60;6.82;;;13.40;92.30;;;;;;5045152;28;20032;-58
2024/04/04 05:18:08;;;;;;;62.28;8.55;;;13.50;92.20;;;;;;5045151;28;20036;-58
2024/04/04 05:20:34;;;;;;;58.80;7.47;;;13.40;92.20;;;;;;5045041;28;20049;-58
2024/04/04 05:23:00;;;;;;;55.13;7.75;;;13.50;92.20;;;;;;5044932;28;20033;-58
2024/04/04 05:25:27;;;;;;;59.63;7.35;;;13.50;92.20;;;;;;5044870;28;20029;-58
2024/04/04 05:27:52;;;;;;;56.78;8.85;;;13.40;92.10;;;;;;5045191;28;20057;-58
2024/04/04 05:30:18;;;;;;;77.20;8.82;;;13.40;92.20;;;;;;5046335;28;20076;-58
2024/04/04 05:32:45;;;;;;;139.48;15.13;;;13.50;92.30;;;;;;5044665;28;20334;-58
2024/04/04 05:35:11;;;;;;;122.03;14.13;;;13.50;92.20;;;;;;5044737;28;20026;-58
2024/04/04 05:37:36;;;;;;;107.70;13.63;;;13.50;92.30;;;;;;5045910;28;20032;-57
2024/04/04 05:40:04;;;;;;;102.47;13.48;;;13.40;92.30;;;;;;5044268;28;20045;-58
2024/04/04 05:42:30;;;;;;;126.43;13.35;;;13.50;92.30;;;;;;5045984;28;20037;-58
2024/04/04 05:44:56;;;;;;;143.35;15.70;;;13.50;92.40;;;;;;5044494;28;20029;-58
2024/04/04 05:47:21;;;;;;;136.13;14.98;;;13.50;92.40;;;;;;5044264;28;20033;-58
2024/04/04 05:49:47;;;;;;;128.57;13.60;;;13.50;92.30;;;;;;5044587;28;20140;-58
2024/04/04 05:52:14;;;;;;;107.30;13.88;;;13.50;92.30;;;;;;5045056;28;20103;-59
2024/04/04 05:54:40;;;;;;;119.82;15.45;;;13.50;92.30;;;;;;5043546;28;20021;-58
2024/04/04 05:57:06;;;;;;;101.13;14.10;;;13.50;92.40;;;;;;5044122;28;20033;-58
2024/04/04 05:59:32;;;;;;;125.97;16.98;;;13.50;92.30;;;;;;5027556;28;20041;-57
2024/04/04 06:01:58;;;;;;;105.97;13.13;;;13.50;92.30;;;;;;5044075;28;20091;-57
2024/04/04 06:04:25;;;;;;;105.15;12.98;;;13.50;92.30;;;;;;5043628;28;20025;-57
2024/04/04 06:06:51;;;;;;;123.75;13.15;;;13.50;92.20;;;;;;5042510;28;20124;-58
2024/04/04 06:09:16;;;;;;;107.93;12.95;;;13.60;92.20;;;;;;5043616;28;20049;-58
2024/04/04 06:11:42;;;;;;;103.65;10.95;;;13.50;92.20;;;;;;5043360;28;20121;-58
2024/04/04 06:14:08;;;;;;;104.38;10.27;;;13.60;92.10;;;;;;5041948;28;20025;-58
2024/04/04 06:16:34;;;;;;;77.20;7.93;;;13.50;92.00;;;;;;5043420;28;20033;-58
2024/04/04 06:19:00;;;;;;;78.55;9.38;;;13.50;92.00;;;;;;5042148;28;20481;-58
2024/04/04 06:21:25;;;;;;;91.40;8.10;;;13.50;92.00;;;;;;5042359;28;20036;-58
2024/04/04 06:23:51;;;;;;;56.15;6.53;;;13.50;92.00;;;;;;5041845;28;20052;-58
2024/04/04 06:26:17;;;;;;;62.85;6.90;;;13.50;92.00;;;;;;5041756;28;20504;-58
2024/04/04 06:28:44;;;;;;;44.85;6.25;;;13.50;91.90;;;;;;5042920;28;20117;-58
2024/04/04 06:31:10;;;;;;;49.03;5.47;;;13.50;91.90;;;;;;5024884;28;20021;-58
2024/04/04 06:33:37;;;;;;;37.13;4.93;;;13.50;91.90;;;;;;5056319;28;20032;-58
2024/04/04 06:36:03;;;;;;;33.75;4.40;;;13.50;91.90;;;;;;5062804;28;20025;-58
2024/04/04 06:38:29;;;;;;;30.33;4.03;;;13.50;91.90;;;;;;5063562;28;20040;-58
2024/04/04 06:40:55;;;;;;;34.85;4.82;;;13.50;91.90;;;;;;5062895;28;20041;-58
2024/04/04 06:43:20;;;;;;;28.90;3.83;;;13.50;91.80;;;;;;5063181;28;20040;-58
2024/04/04 06:45:46;;;;;;;27.77;3.33;;;13.50;91.80;;;;;;5062955;28;20021;-58
2024/04/04 06:48:11;;;;;;;32.63;4.53;;;13.50;91.80;;;;;;5063053;28;20539;-58
2024/04/04 06:50:38;;;;;;;22.73;3.35;;;13.50;91.70;;;;;;5063427;28;20025;-58
2024/04/04 06:53:03;;;;;;;15.18;3.60;;;13.50;92.00;;;;;;5049920;28;20195;-58
2024/04/04 06:55:31;;;;;;;24.15;3.08;;;13.50;91.70;;;;;;5076748;28;20036;-58
2024/04/04 06:57:56;;;;;;;31.00;3.88;;;13.50;91.70;;;;;;5055839;28;20048;-58
2024/04/04 07:00:22;;;;;;;23.85;3.08;;;13.50;91.60;;;;;;5077552;28;20028;-57
2024/04/04 07:02:47;;;;;;;18.42;2.65;;;13.50;91.50;;;;;;5049085;28;20507;-58
2024/04/04 07:05:13;;;;;;;37.40;4.78;;;13.60;91.50;;;;;;5061544;28;20043;-58
2024/04/04 07:07:39;;;;;;;27.02;4.28;;;13.60;91.40;;;;;;5048778;28;20036;-58
2024/04/04 07:10:05;;;;;;;27.85;4.13;;;13.60;91.40;;;;;;5062456;28;20021;-58
2024/04/04 07:12:31;;;;;;;31.98;3.80;;;13.60;91.30;;;;;;5080836;28;20351;-59
2024/04/04 07:14:56;;;;;;;12.07;2.65;;;13.70;91.30;;;;;;5064229;28;20036;-58
2024/04/04 07:17:23;;;;;;;27.67;3.63;;;13.70;91.20;;;;;;5046245;28;20173;-58
2024/04/04 07:19:53;;;;;;;25.38;3.85;;;13.70;91.20;;;;;;5065800;28;20031;-58
2024/04/04 07:22:19;;;;;;;61.20;5.93;;;13.70;91.10;;;;;;5083184;28;20048;-58
2024/04/04 07:24:45;;;;;;;49.15;5.00;;;13.70;91.00;;;;;;5082950;28;20478;-58
2024/04/04 07:27:10;;;;;;;36.63;5.22;;;13.70;91.00;;;;;;5081399;28;20096;-57
2024/04/04 07:29:36;;;;;;;42.13;4.13;;;13.80;91.00;;;;;;5084369;28;20052;-58
2024/04/04 07:32:01;;;;;;;43.80;5.20;;;13.80;90.90;;;;;;5071047;28;20029;-58
2024/04/04 07:34:27;;;;;;;22.98;3.45;;;13.80;90.90;;;;;;5050809;28;20060;-60
2024/04/04 07:36:53;;;;;;;24.42;3.20;;;13.80;90.80;;;;;;5056978;28;20040;-58
2024/04/04 07:39:20;;;;;;;31.55;3.50;;;13.80;90.70;;;;;;5065790;28;20032;-60
2024/04/04 07:41:47;;;;;;;27.13;3.35;;;13.90;90.60;;;;;;5055714;28;20060;-60
2024/04/04 07:44:13;;;;;;;16.77;3.45;;;13.90;90.50;;;;;;5042564;28;20025;-60
2024/04/04 07:46:39;;;;;;;32.30;3.85;;;13.90;90.50;;;;;;5061616;28;20029;-60
2024/04/04 07:49:05;;;;;;;36.25;3.78;;;13.90;90.50;;;;;;5061923;28;20021;-59
2024/04/04 07:51:30;;;;;;;43.38;4.07;;;13.90;90.40;;;;;;5047066;28;20029;-60
2024/04/04 07:53:56;;;;;;;31.67;3.72;;;14.00;90.30;;;;;;5046693;28;20022;-60
2024/04/04 07:56:22;;;;;;;37.08;4.68;;;14.00;90.20;;;;;;5036883;28;20041;-60
2024/04/04 07:58:48;;;;;;;30.63;3.15;;;14.00;90.20;;;;;;5066947;28;20360;-57
2024/04/04 08:01:17;;;;;;;24.00;3.05;;;14.00;90.20;;;;;;5064275;28;20041;-57
2024/04/04 08:03:46;;;;;;;22.52;3.28;;;14.10;90.10;;;;;;5066401;28;20080;-57
2024/04/04 08:06:12;;;;;;;28.52;3.83;;;14.10;90.10;;;;;;5063237;28;20728;-57
2024/04/04 08:08:38;;;;;;;37.75;4.40;;;14.10;90.00;;;;;;5054691;28;20032;-57
2024/04/04 08:11:05;;;;;;;24.40;3.00;;;14.10;90.00;;;;;;5065566;28;20040;-57
2024/04/04 08:13:31;;;;;;;41.63;3.65;;;14.10;89.90;;;;;;5064117;28;20114;-57
2024/04/04 08:15:56;;;;;;;33.83;3.22;;;14.20;90.00;;;;;;5065139;28;20025;-57
2024/04/04 08:18:22;;;;;;;25.85;3.58;;;14.10;90.00;;;;;;5056398;28;20029;-60
2024/04/04 08:20:48;;;;;;;32.97;3.72;;;14.20;90.00;;;;;;5062336;28;20049;-60
2024/04/04 08:23:13;;;;;;;40.10;4.10;;;14.20;89.80;;;;;;5045652;28;20119;-60
2024/04/04 08:25:40;;;;;;;30.60;3.95;;;14.20;89.80;;;;;;5040061;28;20028;-60
2024/04/04 08:28:06;;;;;;;21.23;3.08;;;14.30;89.60;;;;;;5060367;28;20052;-60
2024/04/04 08:30:31;;;;;;;20.00;2.90;;;14.30;89.50;;;;;;5048337;28;20017;-57
2024/04/04 08:32:57;;;;;;;19.63;2.85;;;14.30;89.50;;;;;;5063902;28;20116;-57
2024/04/04 08:35:23;;;;;;;27.45;3.45;;;14.30;89.40;;;;;;5065081;28;20036;-57
2024/04/04 08:37:49;;;;;;;22.63;4.40;;;14.30;89.40;;;;;;5061543;28;20037;-57
2024/04/04 08:40:14;;;;;;;28.13;3.53;;;14.40;89.30;;;;;;5039686;28;20033;-57
2024/04/04 08:42:41;;;;;;;22.90;3.38;;;14.40;89.10;;;;;;5063340;28;20047;-57
2024/04/04 08:45:08;;;;;;;29.60;4.20;;;14.40;89.10;;;;;;5048808;28;20035;-57
2024/04/04 08:47:34;;;;;;;36.45;4.30;;;14.50;89.00;;;;;;5044430;28;20033;-57
2024/04/04 08:49:59;;;;;;;21.85;3.80;;;14.50;88.80;;;;;;5037247;28;20031;-58
2024/04/04 08:52:25;;;;;;;23.33;3.60;;;14.50;88.70;;;;;;5061914;28;20029;-57
2024/04/04 08:54:50;;;;;;;29.88;4.45;;;14.60;88.60;;;;;;5057763;28;20013;-57
2024/04/04 08:57:16;;;;;;;23.90;4.43;;;14.60;88.50;;;;;;5064138;28;20032;-57
2024/04/04 08:59:42;;;;;;;26.88;4.30;;;14.60;88.40;;;;;;5063176;28;20025;-60
2024/04/04 09:02:07;;;;;;;18.35;3.83;;;14.70;88.30;;;;;;5063737;28;20025;-60
2024/04/04 09:04:33;;;;;;;39.55;5.57;;;14.70;88.50;;;;;;5063011;28;20021;-60
2024/04/04 09:06:59;;;;;;;41.70;4.57;;;14.70;88.50;;;;;;5022476;28;20033;-60
2024/04/04 09:09:24;;;;;;;29.20;4.28;;;14.80;88.60;;;;;;5059208;28;20121;-60
2024/04/04 09:11:50;;;;;;;26.20;4.80;;;14.80;88.40;;;;;;5047561;28;20032;-60
2024/04/04 09:14:16;;;;;;;40.10;4.40;;;14.80;88.30;;;;;;5064889;28;20082;-60
2024/04/04 09:16:42;;;;;;;42.17;5.53;;;14.80;87.90;;;;;;5063576;28;20452;-60
2024/04/04 09:19:16;;;;;;;56.95;5.53;;;14.80;88.00;;;;;;5067075;28;20136;-63
2024/04/04 09:21:44;;;;;;;78.03;7.53;;;14.90;88.20;;;;;;5064670;28;20074;-58
2024/04/04 09:24:13;;;;;;;59.67;7.70;;;14.90;87.90;;;;;;5048550;28;20029;-59
2024/04/04 09:26:38;;;;;;;50.83;7.22;;;15.00;88.20;;;;;;5060050;28;20025;-58
2024/04/04 09:29:05;;;;;;;80.25;8.35;;;15.00;88.30;;;;;;5031913;28;20035;-59
2024/04/04 09:31:36;;;;;;;81.25;8.73;;;15.00;88.00;;;;;;5041894;28;20095;-59
2024/04/04 09:34:02;;;;;;;93.45;9.57;;;15.10;88.20;;;;;;5061746;28;20051;-59
2024/04/04 09:36:29;;;;;;;60.05;6.65;;;15.10;88.50;;;;;;5048604;28;20444;-59
2024/04/04 09:38:59;;;;;;;52.08;6.78;;;15.10;88.30;;;;;;5039772;28;20109;-59
2024/04/04 09:41:29;;;;;;;51.55;6.28;;;15.20;88.20;;;;;;5041999;28;20047;-59
2024/04/04 09:43:58;;;;;;;87.95;8.18;;;15.20;88.00;;;;;;5053919;28;20069;-59
2024/04/04 09:46:28;;;;;;;63.47;7.32;;;15.20;87.80;;;;;;5054167;28;20059;-59
2024/04/04 09:48:54;;;;;;;44.17;6.03;;;15.20;87.70;;;;;;5058804;28;20046;-59
2024/04/04 09:51:24;;;;;;;85.35;8.95;;;15.30;87.70;;;;;;5057263;28;20280;-59
2024/04/04 09:53:50;;;;;;;71.90;8.35;;;15.30;87.60;;;;;;5060879;28;20037;-59
2024/04/04 09:56:16;;;;;;;61.83;8.13;;;15.30;87.50;;;;;;5060162;28;20095;-59
2024/04/04 09:58:42;;;;;;;73.25;8.60;;;15.30;87.50;;;;;;5053555;28;20037;-59
2024/04/04 10:01:20;;;;;;;46.60;8.45;;;15.40;87.60;;;;;;5064318;28;20029;-59
2024/04/04 10:03:58;;;;;;;38.97;7.20;;;15.40;87.40;;;;;;5059447;28;20025;-59
2024/04/04 10:06:43;;;;;;;64.32;8.40;;;15.50;87.20;;;;;;5046538;28;20032;-59
2024/04/04 10:09:14;;;;;;;55.95;6.75;;;15.50;87.20;;;;;;5043626;28;20025;-59
2024/04/04 10:11:40;;;;;;;74.18;7.18;;;15.60;87.30;;;;;;5054895;28;20056;-60
2024/04/04 10:14:11;;;;;;;47.58;6.90;;;15.60;87.30;;;;;;5044852;28;20021;-59
2024/04/04 10:16:38;;;;;;;68.85;7.72;;;15.70;87.10;;;;;;5062053;28;20028;-59
2024/04/04 10:19:14;;;;;;;57.97;6.28;;;15.70;87.10;;;;;;5041822;28;20037;-59
2024/04/04 10:21:40;;;;;;;58.03;5.95;;;15.70;86.90;;;;;;5041793;28;20112;-59
2024/04/04 10:24:07;;;;;;;44.08;6.45;;;15.80;86.80;;;;;;5043176;28;20056;-60
2024/04/04 10:26:33;;;;;;;71.05;8.75;;;15.80;86.70;;;;;;5041609;28;20025;-60
2024/04/04 10:28:59;;;;;;;86.85;7.30;;;15.80;86.60;;;;;;5052547;28;20031;-59
2024/04/04 10:31:25;;;;;;;102.47;11.52;;;15.90;86.50;;;;;;5057472;28;20022;-59
2024/04/04 10:34:04;;;;;;;46.58;5.90;;;15.90;86.40;;;;;;5058422;28;20072;-59
2024/04/04 10:36:41;;;;;;;71.95;9.45;;;15.90;86.30;;;;;;5023195;28;20448;-60
2024/04/04 10:39:09;;;;;;;70.85;8.90;;;16.00;86.30;;;;;;5045100;28;20104;-60
2024/04/04 10:41:36;;;;;;;102.28;9.23;;;16.00;86.20;;;;;;5040803;28;20033;-59
2024/04/04 10:44:07;;;;;;;59.15;7.57;;;16.00;86.20;;;;;;5047276;28;20031;-60
2024/04/04 10:46:32;;;;;;;63.45;8.25;;;16.10;86.50;;;;;;5050203;28;20033;-60
2024/04/04 10:48:58;;;;;;;106.15;10.73;;;16.10;86.30;;;;;;5057060;28;20052;-60
2024/04/04 10:51:24;;;;;;;50.97;6.80;;;16.10;86.20;;;;;;5049049;28;20084;-60
2024/04/04 10:53:51;;;;;;;75.60;6.93;;;16.20;86.00;;;;;;5062571;28;20055;-59
2024/04/04 10:56:17;;;;;;;62.53;7.53;;;16.10;86.00;;;;;;5038556;28;20021;-60
2024/04/04 10:58:43;;;;;;;38.97;5.22;;;16.20;85.80;;;;;;5053352;28;20029;-60
2024/04/04 11:01:10;;;;;;;59.50;6.80;;;16.20;85.70;;;;;;5071197;28;20043;-60
2024/04/04 11:03:36;;;;;;;49.95;5.55;;;16.20;85.70;;;;;;5044186;28;20032;-60
2024/04/04 11:06:03;;;;;;;72.78;7.53;;;16.20;85.50;;;;;;5036891;28;20100;-60
2024/04/04 11:08:29;;;;;;;49.55;6.50;;;16.20;85.40;;;;;;5054377;28;20025;-59
2024/04/04 11:10:54;;;;;;;52.38;6.70;;;16.20;85.40;;;;;;5062370;28;20037;-60
2024/04/04 11:13:20;;;;;;;67.75;7.57;;;16.20;85.40;;;;;;5060001;28;20542;-60
2024/04/04 11:15:45;;;;;;;83.53;8.98;;;16.20;85.20;;;;;;5056228;28;20085;-60
2024/04/04 11:18:11;;;;;;;42.80;5.72;;;16.20;85.20;;;;;;5038653;28;20084;-60
2024/04/04 11:20:38;;;;;;;41.92;5.05;;;16.20;84.80;;;;;;5029589;28;20081;-60
2024/04/04 11:23:03;;;;;;;58.00;5.32;;;16.30;84.40;;;;;;5047858;28;20037;-60
2024/04/04 11:25:29;;;;;;;65.20;6.63;;;16.30;84.20;;;;;;5050503;28;20117;-60
2024/04/04 11:27:55;;;;;;;74.15;6.68;;;16.30;84.00;;;;;;5037030;28;20101;-60
2024/04/04 11:30:21;;;;;;;36.67;4.78;;;16.30;83.70;;;;;;5057609;28;20028;-60
2024/04/04 11:32:46;;;;;;;29.45;3.97;;;16.30;83.60;;;;;;5058263;28;20025;-60
2024/04/04 11:35:13;;;;;;;27.05;3.30;;;16.40;83.40;;;;;;5061192;28;20402;-59
2024/04/04 11:37:39;;;;;;;28.80;3.38;;;16.40;83.10;;;;;;5040352;28;20033;-60
2024/04/04 11:40:06;;;;;;;39.03;4.65;;;16.40;83.00;;;;;;5026109;28;20044;-60
2024/04/04 11:42:32;;;;;;;32.80;5.03;;;16.40;83.00;;;;;;5056717;28;20131;-60
2024/04/04 11:44:57;;;;;;;20.60;3.50;;;16.50;83.10;;;;;;5061682;28;20251;-60
2024/04/04 11:47:23;;;;;;;39.25;4.85;;;16.50;83.20;;;;;;5050355;28;20101;-60
2024/04/04 11:49:49;;;;;;;78.20;6.88;;;16.50;83.20;;;;;;5036284;28;20264;-60
2024/04/04 11:52:14;;;;;;;81.15;10.00;;;16.50;83.40;;;;;;5070720;28;20387;-60
2024/04/04 11:54:40;;;;;;;88.35;8.27;;;16.50;83.00;;;;;;5042747;28;20038;-60
2024/04/04 11:57:06;;;;;;;51.63;5.65;;;16.50;83.00;;;;;;5076396;28;20032;-59
2024/04/04 11:59:31;;;;;;;27.27;4.45;;;16.50;82.80;;;;;;5050562;28;20353;-60
2024/04/04 12:01:57;;;;;;;49.63;4.13;;;16.50;82.90;;;;;;5067130;28;20567;-60
2024/04/04 12:04:23;;;;;;;34.25;4.03;;;16.60;83.00;;;;;;5071754;28;20103;-59
2024/04/04 12:06:50;;;;;;;62.13;7.32;;;16.60;83.10;;;;;;5075840;28;20036;-59
2024/04/04 12:09:16;;;;;;;49.00;5.47;;;16.60;83.00;;;;;;5068791;28;20096;-59
2024/04/04 12:11:42;;;;;;;52.35;6.13;;;16.60;83.00;;;;;;5069815;28;20174;-59
2024/04/04 12:14:08;;;;;;;36.42;5.50;;;16.60;83.00;;;;;;5029092;28;20029;-60
2024/04/04 12:16:34;;;;;;;46.80;5.43;;;16.60;83.00;;;;;;5049798;28;20035;-59
2024/04/04 12:21:44;;;;;;;55.10;6.45;;;16.70;83.00;;;;;;5060674;28;20055;-60
2024/04/04 12:24:10;;;;;;;61.55;6.15;;;16.70;82.90;;;;;;5056098;28;20036;-59
2024/04/04 12:26:35;;;;;;;45.33;5.60;;;16.70;83.10;;;;;;5035052;28;20034;-60
2024/04/04 12:29:01;;;;;;;56.38;5.78;;;16.70;82.90;;;;;;5031766;28;20044;-60
2024/04/04 12:31:28;;;;;;;64.75;7.63;;;16.80;83.00;;;;;;5061856;28;20342;-60
2024/04/04 12:33:53;;;;;;;40.63;5.55;;;16.80;82.70;;;;;;5063554;28;20472;-60
2024/04/04 12:36:19;;;;;;;34.45;3.42;;;16.80;82.70;;;;;;5047767;28;20046;-60